Time;durP1;ratioP1;P1;durP2;ratioP2;P2;SDS_P1;SDS_P2;PMS_P1;PMS_P2;Temp;Humidity;BMP_temperature;BMP_pressure;BME280_temperature;BME280_humidity;BME280_pressure;Samples;Min_cycle;Max_cycle;Signal;HPM_P1;HPM_P2
2022/08/16 00:00:46;;;;;;;11.87;8.77;;;20.20;99.90;;;;;;4186102;28;20697;-77
2022/08/16 00:02:48;;;;;;;11.07;8.40;;;20.20;99.90;;;;;;4183170;28;20206;-77
2022/08/16 00:04:51;;;;;;;10.00;7.60;;;20.20;99.90;;;;;;4190644;28;20221;-77
2022/08/16 00:06:53;;;;;;;12.13;9.17;;;20.20;99.90;;;;;;4190337;28;20222;-77
2022/08/16 00:08:55;;;;;;;11.80;8.73;;;20.10;99.90;;;;;;4190153;28;20776;-77
2022/08/16 00:10:57;;;;;;;12.20;8.87;;;20.10;99.90;;;;;;4188928;28;20685;-77
2022/08/16 00:12:59;;;;;;;13.30;10.20;;;20.10;99.90;;;;;;4170082;28;20207;-77
2022/08/16 00:15:06;;;;;;;11.87;9.03;;;20.10;99.90;;;;;;4189906;28;20214;-77
2022/08/16 00:17:08;;;;;;;13.90;9.57;;;20.10;99.90;;;;;;4187552;28;20283;-77
2022/08/16 00:19:11;;;;;;;13.73;10.33;;;20.00;99.90;;;;;;4193180;28;20197;-77
2022/08/16 00:21:14;;;;;;;13.50;9.80;;;20.00;99.90;;;;;;4189799;28;20583;-77
2022/08/16 00:23:16;;;;;;;15.40;10.97;;;20.00;99.90;;;;;;4187822;28;20212;-77
2022/08/16 00:25:22;;;;;;;17.67;11.67;;;20.00;99.90;;;;;;4186197;28;20207;-77
2022/08/16 00:27:23;;;;;;;15.63;11.23;;;20.00;99.90;;;;;;4187552;28;20734;-77
2022/08/16 00:29:25;;;;;;;15.67;11.07;;;20.00;99.90;;;;;;4169769;28;20375;-77
2022/08/16 00:31:30;;;;;;;14.53;11.20;;;19.90;99.90;;;;;;4171288;28;20219;-77
2022/08/16 00:33:32;;;;;;;15.10;11.40;;;19.90;99.90;;;;;;4187977;28;20295;-77
2022/08/16 00:35:36;;;;;;;14.07;10.47;;;19.90;99.90;;;;;;4185009;28;20270;-77
2022/08/16 00:37:40;;;;;;;14.93;10.83;;;19.90;99.90;;;;;;4183219;28;20746;-77
2022/08/16 00:39:42;;;;;;;16.33;11.47;;;19.90;99.90;;;;;;4184679;28;20205;-77
2022/08/16 00:41:45;;;;;;;21.40;11.97;;;19.90;99.90;;;;;;4187852;28;20210;-77
2022/08/16 00:43:47;;;;;;;19.37;11.67;;;19.90;99.90;;;;;;4190878;28;20215;-77
2022/08/16 00:45:55;;;;;;;18.10;12.27;;;19.90;99.90;;;;;;4185665;28;20635;-77
2022/08/16 00:47:57;;;;;;;14.23;10.57;;;19.90;99.90;;;;;;4166561;28;20257;-77
2022/08/16 00:49:59;;;;;;;15.83;11.33;;;19.90;99.90;;;;;;4169740;28;20225;-77
2022/08/16 00:52:01;;;;;;;16.27;11.60;;;19.90;99.90;;;;;;4187842;28;20729;-77
2022/08/16 00:54:05;;;;;;;18.20;11.80;;;19.90;99.90;;;;;;4168253;28;20256;-77
2022/08/16 00:56:11;;;;;;;15.23;11.10;;;19.80;99.90;;;;;;4189165;28;20217;-77
2022/08/16 00:58:15;;;;;;;16.57;11.07;;;19.80;99.90;;;;;;4171920;28;20209;-77
2022/08/16 01:00:17;;;;;;;15.63;11.23;;;19.80;99.90;;;;;;4187424;28;20691;-77
2022/08/16 01:02:20;;;;;;;15.40;11.57;;;19.80;99.90;;;;;;4187145;28;20292;-77
2022/08/16 01:04:25;;;;;;;17.00;11.63;;;19.80;99.90;;;;;;4175003;28;20271;-77
2022/08/16 01:06:29;;;;;;;15.10;11.27;;;19.80;99.90;;;;;;4171149;28;20267;-77
2022/08/16 01:08:31;;;;;;;15.10;10.97;;;19.70;99.90;;;;;;4185555;28;20299;-77
2022/08/16 01:10:35;;;;;;;16.07;11.00;;;19.70;99.90;;;;;;4166866;28;20790;-77
2022/08/16 01:12:37;;;;;;;15.10;11.03;;;19.70;99.90;;;;;;4168886;28;20308;-77
2022/08/16 01:14:43;;;;;;;14.63;10.13;;;19.70;99.90;;;;;;4183716;28;20211;-76
2022/08/16 01:16:47;;;;;;;14.50;10.60;;;19.70;99.90;;;;;;4168392;28;20334;-77
2022/08/16 01:18:54;;;;;;;14.87;9.97;;;19.70;99.90;;;;;;4184135;28;20209;-77
2022/08/16 01:21:04;;;;;;;15.03;9.77;;;19.70;99.90;;;;;;4186180;28;20236;-77
2022/08/16 01:23:12;;;;;;;13.67;10.17;;;19.70;99.90;;;;;;4184083;28;20676;-77
2022/08/16 01:25:20;;;;;;;12.07;9.20;;;19.70;99.90;;;;;;4186680;28;20735;-77
2022/08/16 01:27:26;;;;;;;16.00;10.87;;;19.70;99.90;;;;;;4187134;28;20310;-77
2022/08/16 01:29:36;;;;;;;12.77;9.33;;;19.60;99.90;;;;;;4170181;28;20720;-77
2022/08/16 01:31:38;;;;;;;14.00;10.20;;;19.60;99.90;;;;;;4186466;28;20244;-77
2022/08/16 01:33:40;;;;;;;14.43;10.03;;;19.60;99.90;;;;;;4186542;28;20210;-77
2022/08/16 01:35:47;;;;;;;15.13;10.53;;;19.60;99.90;;;;;;4188410;28;20231;-77
2022/08/16 01:37:51;;;;;;;15.60;9.80;;;19.60;99.90;;;;;;4178502;28;20755;-77
2022/08/16 01:39:53;;;;;;;13.17;9.40;;;19.50;99.90;;;;;;4165870;28;20206;-77
2022/08/16 01:41:57;;;;;;;13.37;9.70;;;19.50;99.90;;;;;;4170279;28;20683;-77
2022/08/16 01:43:59;;;;;;;15.83;10.17;;;19.50;99.90;;;;;;4187594;28;20206;-77
2022/08/16 01:46:04;;;;;;;15.83;10.87;;;19.50;99.90;;;;;;4189193;28;20573;-77
2022/08/16 01:48:06;;;;;;;14.97;10.47;;;19.50;99.90;;;;;;4189564;28;20670;-77
2022/08/16 01:50:08;;;;;;;16.77;10.23;;;19.50;99.90;;;;;;4187364;28;20232;-77
2022/08/16 01:52:14;;;;;;;16.90;10.23;;;19.50;99.90;;;;;;4168816;28;20213;-77
2022/08/16 01:54:16;;;;;;;15.60;10.70;;;19.50;99.90;;;;;;4183608;28;20292;-77
2022/08/16 01:56:19;;;;;;;17.30;11.20;;;19.40;99.90;;;;;;4186460;28;20283;-77
2022/08/16 01:58:23;;;;;;;13.93;10.23;;;19.40;99.90;;;;;;4185318;28;20217;-77
2022/08/16 02:00:26;;;;;;;14.83;9.97;;;19.40;99.90;;;;;;4167156;28;20210;-77
2022/08/16 02:02:28;;;;;;;13.07;9.80;;;19.40;99.90;;;;;;4170808;28;20228;-77
2022/08/16 02:04:32;;;;;;;15.03;10.20;;;19.40;99.90;;;;;;4176205;28;20878;-77
2022/08/16 02:06:34;;;;;;;12.77;9.50;;;19.40;99.90;;;;;;4172116;28;20230;-77
2022/08/16 02:08:35;;;;;;;12.90;10.00;;;19.40;99.90;;;;;;4187484;28;20201;-77
2022/08/16 02:10:38;;;;;;;14.17;10.40;;;19.30;99.90;;;;;;4187241;28;20236;-77
2022/08/16 02:12:39;;;;;;;18.77;11.60;;;19.40;99.90;;;;;;4184827;28;20199;-77
2022/08/16 02:14:43;;;;;;;20.10;12.87;;;19.30;99.90;;;;;;4185782;28;20576;-77
2022/08/16 02:16:45;;;;;;;18.03;11.77;;;19.30;99.90;;;;;;4171566;28;20315;-77
2022/08/16 02:18:48;;;;;;;17.33;11.20;;;19.30;99.90;;;;;;4174922;28;20213;-77
2022/08/16 02:20:52;;;;;;;16.27;10.90;;;19.30;99.90;;;;;;4186090;28;20231;-77
2022/08/16 02:22:55;;;;;;;13.93;10.37;;;19.20;99.90;;;;;;4185018;28;20216;-77
2022/08/16 02:24:57;;;;;;;14.90;10.83;;;19.20;99.90;;;;;;4184197;28;20219;-77
2022/08/16 02:26:59;;;;;;;16.43;11.07;;;19.20;99.90;;;;;;4183423;28;20699;-77
2022/08/16 02:29:01;;;;;;;15.27;10.87;;;19.20;99.90;;;;;;4185737;28;20218;-77
2022/08/16 02:31:08;;;;;;;15.80;11.03;;;19.20;99.90;;;;;;4188411;28;20226;-77
2022/08/16 02:33:11;;;;;;;17.63;12.10;;;19.20;99.90;;;;;;4186530;28;20206;-77
2022/08/16 02:35:14;;;;;;;16.37;11.83;;;19.10;99.90;;;;;;4187454;28;20215;-77
2022/08/16 02:37:16;;;;;;;16.57;11.27;;;19.10;99.90;;;;;;4166490;28;20245;-77
2022/08/16 02:39:19;;;;;;;15.53;11.23;;;19.10;99.90;;;;;;4185783;28;20211;-77
2022/08/16 02:41:21;;;;;;;17.17;12.10;;;19.10;99.90;;;;;;4167429;28;20312;-77
2022/08/16 02:43:23;;;;;;;15.23;11.80;;;19.10;99.90;;;;;;4181341;28;20208;-77
2022/08/16 02:45:27;;;;;;;15.27;10.50;;;19.00;99.90;;;;;;4185181;28;20269;-77
2022/08/16 02:47:30;;;;;;;16.23;11.03;;;19.00;99.90;;;;;;4187360;28;20328;-77
2022/08/16 02:49:32;;;;;;;14.23;10.20;;;19.00;99.90;;;;;;4167681;28;20712;-77
2022/08/16 02:51:35;;;;;;;14.97;10.77;;;19.00;99.90;;;;;;4186742;28;20239;-77
2022/08/16 02:53:40;;;;;;;15.23;11.17;;;19.00;99.90;;;;;;4171032;28;20555;-78
2022/08/16 02:55:42;;;;;;;15.03;11.20;;;19.00;99.90;;;;;;4169995;28;20658;-78
2022/08/16 02:57:44;;;;;;;15.60;10.80;;;18.90;99.90;;;;;;4170983;28;20232;-77
2022/08/16 02:59:46;;;;;;;15.47;10.67;;;18.90;99.90;;;;;;4185271;28;20273;-78
2022/08/16 03:01:48;;;;;;;14.80;10.30;;;18.90;99.90;;;;;;4168598;28;20242;-77
2022/08/16 03:03:51;;;;;;;13.30;9.43;;;18.90;99.90;;;;;;4187841;28;20271;-77
2022/08/16 03:05:54;;;;;;;13.97;9.87;;;18.90;99.90;;;;;;4168647;28;20215;-78
2022/08/16 03:07:56;;;;;;;14.73;10.33;;;18.90;99.90;;;;;;4166175;28;20307;-78
2022/08/16 03:09:58;;;;;;;12.33;9.30;;;18.80;99.90;;;;;;4169419;28;20240;-77
2022/08/16 03:12:00;;;;;;;14.07;10.33;;;18.90;99.90;;;;;;4175532;28;20199;-77
2022/08/16 03:14:02;;;;;;;14.23;10.23;;;18.80;99.90;;;;;;4186946;28;20207;-78
2022/08/16 03:16:04;;;;;;;15.37;10.93;;;18.80;99.90;;;;;;4185133;28;20583;-77
2022/08/16 03:18:06;;;;;;;17.67;10.90;;;18.80;99.90;;;;;;4183970;28;20206;-78
2022/08/16 03:20:13;;;;;;;12.80;9.97;;;18.80;99.90;;;;;;4167248;28;20198;-77
2022/08/16 03:22:15;;;;;;;14.43;10.20;;;18.80;99.90;;;;;;4187303;28;20398;-77
2022/08/16 03:24:17;;;;;;;14.77;10.53;;;18.80;99.90;;;;;;4189174;28;20301;-77
2022/08/16 03:26:20;;;;;;;17.07;10.87;;;18.80;99.90;;;;;;4184399;28;20238;-78
2022/08/16 03:28:21;;;;;;;14.03;10.83;;;18.70;99.90;;;;;;4186148;28;20339;-77
2022/08/16 03:30:27;;;;;;;14.30;10.80;;;18.70;99.90;;;;;;4186416;28;20250;-78
2022/08/16 03:32:29;;;;;;;18.57;11.73;;;18.80;99.90;;;;;;4186185;28;20560;-78
2022/08/16 03:34:33;;;;;;;21.13;12.17;;;18.70;99.90;;;;;;4183007;28;20356;-77
2022/08/16 03:36:36;;;;;;;14.63;11.00;;;18.70;99.90;;;;;;4211079;22;20604;-79
2022/08/16 03:38:38;;;;;;;16.63;11.73;;;18.80;99.90;;;;;;4168744;28;20256;-79
2022/08/16 03:40:41;;;;;;;17.53;12.47;;;18.80;99.90;;;;;;4183993;28;20205;-79
2022/08/16 03:42:43;;;;;;;17.93;11.90;;;18.70;99.90;;;;;;4181336;28;20691;-79
2022/08/16 03:44:45;;;;;;;16.83;12.03;;;18.70;99.90;;;;;;4186744;28;20208;-79
2022/08/16 03:46:47;;;;;;;18.57;11.97;;;18.70;99.90;;;;;;4189654;28;20210;-80
2022/08/16 03:48:49;;;;;;;15.47;11.03;;;18.70;99.90;;;;;;4190448;28;20202;-80
2022/08/16 03:50:51;;;;;;;15.73;11.53;;;18.60;99.90;;;;;;4190274;28;20222;-80
2022/08/16 03:52:55;;;;;;;16.43;11.43;;;18.60;99.90;;;;;;4173122;28;20256;-80
2022/08/16 03:54:57;;;;;;;14.17;10.70;;;18.60;99.90;;;;;;4171437;28;20219;-80
2022/08/16 03:56:59;;;;;;;14.00;11.07;;;18.60;99.90;;;;;;4167150;28;20219;-79
2022/08/16 03:59:01;;;;;;;17.30;11.40;;;18.60;99.90;;;;;;4168297;28;20943;-79
2022/08/16 04:01:04;;;;;;;21.50;13.13;;;18.60;99.90;;;;;;4171884;28;20230;-79
2022/08/16 04:03:06;;;;;;;20.20;14.07;;;18.50;99.90;;;;;;4173446;28;20231;-79
2022/08/16 04:05:09;;;;;;;17.47;12.13;;;18.50;99.90;;;;;;4194000;28;20222;-80
2022/08/16 04:07:11;;;;;;;18.00;12.57;;;18.50;99.90;;;;;;4177380;28;20229;-80
2022/08/16 04:09:15;;;;;;;17.80;12.37;;;18.50;99.90;;;;;;4174501;28;20206;-80
2022/08/16 04:11:17;;;;;;;18.27;11.87;;;18.30;99.90;;;;;;4194311;28;20718;-80
2022/08/16 04:13:20;;;;;;;13.37;10.47;;;18.50;99.90;;;;;;4174780;28;20263;-80
2022/08/16 04:15:22;;;;;;;14.30;10.87;;;18.50;99.90;;;;;;4178682;28;20257;-80
2022/08/16 04:17:23;;;;;;;14.83;10.87;;;18.50;99.90;;;;;;4191895;28;20227;-79
2022/08/16 04:19:26;;;;;;;15.93;11.40;;;18.40;99.90;;;;;;4172318;28;20207;-79
2022/08/16 04:21:28;;;;;;;17.57;11.53;;;18.40;99.90;;;;;;4188563;28;20199;-80
2022/08/16 04:23:30;;;;;;;16.60;11.80;;;18.40;99.90;;;;;;4193784;28;20231;-79
2022/08/16 04:25:33;;;;;;;15.30;11.20;;;18.40;99.90;;;;;;4177671;28;20634;-79
2022/08/16 04:27:35;;;;;;;14.57;10.57;;;18.40;99.90;;;;;;4192699;28;20222;-79
2022/08/16 04:29:37;;;;;;;15.33;10.77;;;18.30;99.90;;;;;;4195675;28;20267;-79
2022/08/16 04:31:39;;;;;;;14.43;11.20;;;18.30;99.90;;;;;;4192446;28;20308;-80
2022/08/16 04:33:41;;;;;;;15.07;10.83;;;18.40;99.90;;;;;;4188165;28;20206;-79
2022/08/16 04:35:44;;;;;;;14.73;11.13;;;18.30;99.90;;;;;;4168346;28;20270;-80
2022/08/16 04:37:46;;;;;;;20.63;11.50;;;18.30;99.90;;;;;;4170449;28;20244;-80
2022/08/16 04:39:48;;;;;;;20.53;13.50;;;18.40;99.90;;;;;;4192177;28;20304;-79
2022/08/16 04:41:52;;;;;;;17.17;12.23;;;18.30;99.90;;;;;;4183958;28;20206;-80
2022/08/16 04:43:54;;;;;;;15.77;11.37;;;18.40;99.90;;;;;;4190414;28;20207;-80
2022/08/16 04:45:56;;;;;;;16.37;11.50;;;18.30;99.90;;;;;;4190376;28;20683;-80
2022/08/16 04:47:59;;;;;;;18.03;10.77;;;18.30;99.90;;;;;;4187065;28;20575;-80
2022/08/16 04:50:01;;;;;;;14.23;11.53;;;18.30;99.90;;;;;;4167814;28;20668;-79
2022/08/16 04:52:04;;;;;;;15.67;10.13;;;18.30;99.90;;;;;;4188987;28;20553;-80
2022/08/16 04:54:06;;;;;;;13.53;10.70;;;18.30;99.90;;;;;;4173687;28;20719;-80
2022/08/16 04:56:08;;;;;;;13.83;10.60;;;18.30;99.90;;;;;;4189498;28;20207;-80
2022/08/16 04:58:12;;;;;;;12.93;10.23;;;18.30;99.90;;;;;;4189619;28;20829;-80
2022/08/16 05:00:18;;;;;;;14.50;10.13;;;18.30;99.90;;;;;;4153126;28;20207;-79
2022/08/16 05:02:20;;;;;;;12.87;9.53;;;18.30;99.90;;;;;;4170702;28;20625;-80
2022/08/16 05:04:22;;;;;;;13.57;10.40;;;18.30;99.90;;;;;;4192435;28;20215;-79
2022/08/16 05:06:24;;;;;;;11.97;8.90;;;18.30;99.90;;;;;;4176677;28;20739;-80
2022/08/16 05:08:28;;;;;;;11.70;9.37;;;18.40;99.90;;;;;;4187180;28;20211;-80
2022/08/16 05:10:30;;;;;;;13.50;9.83;;;18.40;99.90;;;;;;4182116;28;20219;-80
2022/08/16 05:12:32;;;;;;;12.23;10.03;;;18.40;99.90;;;;;;4176934;28;20276;-79
2022/08/16 05:14:35;;;;;;;13.17;9.57;;;18.40;99.90;;;;;;4179142;28;20222;-79
2022/08/16 05:16:38;;;;;;;14.80;10.27;;;18.40;99.90;;;;;;4178450;28;20208;-79
2022/08/16 05:18:40;;;;;;;16.30;10.63;;;18.50;99.90;;;;;;4196311;28;20209;-79
2022/08/16 05:20:41;;;;;;;16.37;10.77;;;18.50;99.90;;;;;;4176509;28;20211;-80
2022/08/16 05:22:43;;;;;;;18.00;10.70;;;18.50;99.90;;;;;;4179274;28;20742;-80
2022/08/16 05:24:46;;;;;;;14.43;10.37;;;18.50;99.90;;;;;;4197272;28;20232;-80
2022/08/16 05:26:48;;;;;;;16.43;10.47;;;18.50;99.90;;;;;;4180410;28;20206;-81
2022/08/16 05:28:49;;;;;;;11.50;9.23;;;18.50;99.90;;;;;;4196286;28;20204;-81
2022/08/16 05:30:53;;;;;;;16.00;10.53;;;18.50;99.90;;;;;;4189782;28;20210;-80
2022/08/16 05:32:55;;;;;;;17.33;10.03;;;18.50;99.90;;;;;;4190963;28;20285;-80
2022/08/16 05:34:57;;;;;;;13.53;9.40;;;18.60;99.90;;;;;;4185520;28;20203;-80
2022/08/16 05:36:59;;;;;;;13.57;9.03;;;18.60;99.90;;;;;;4182130;28;20355;-80
2022/08/16 05:39:01;;;;;;;12.43;8.80;;;18.60;99.90;;;;;;4186411;28;20298;-81
2022/08/16 05:41:04;;;;;;;11.37;8.60;;;18.70;99.90;;;;;;4168612;28;20209;-79
2022/08/16 05:43:06;;;;;;;10.27;8.50;;;18.70;99.90;;;;;;4160945;28;20207;-80
2022/08/16 05:45:09;;;;;;;11.50;9.00;;;18.70;99.90;;;;;;4187694;28;20606;-80
2022/08/16 05:47:13;;;;;;;13.60;8.90;;;18.70;99.90;;;;;;4185587;28;20226;-80
2022/08/16 05:49:17;;;;;;;12.33;8.27;;;18.80;99.90;;;;;;4159697;28;20638;-83
2022/08/16 05:51:19;;;;;;;15.63;8.33;;;18.80;99.90;;;;;;4170133;28;20220;-79
2022/08/16 05:53:21;;;;;;;12.47;7.97;;;18.80;99.90;;;;;;4169010;28;20213;-80
2022/08/16 05:55:23;;;;;;;10.90;8.43;;;18.90;99.90;;;;;;4165950;28;20641;-80
2022/08/16 05:57:25;;;;;;;14.10;8.00;;;18.90;99.90;;;;;;4169714;28;20252;-80
2022/08/16 05:59:27;;;;;;;12.10;8.10;;;18.90;99.90;;;;;;4186300;28;20209;-81
2022/08/16 06:01:29;;;;;;;13.40;8.00;;;19.00;99.90;;;;;;4165385;28;20201;-80
2022/08/16 06:03:33;;;;;;;9.47;7.77;;;19.00;99.90;;;;;;4169941;28;20208;-80
2022/08/16 06:05:35;;;;;;;11.60;7.63;;;19.00;99.90;;;;;;4185560;28;20257;-81
2022/08/16 06:07:37;;;;;;;10.37;7.37;;;19.10;99.90;;;;;;4166370;28;20291;-81
2022/08/16 06:09:39;;;;;;;9.53;7.53;;;19.20;99.90;;;;;;4168456;28;20226;-81
2022/08/16 06:11:42;;;;;;;11.50;7.50;;;19.10;99.90;;;;;;4174949;28;20647;-80
2022/08/16 06:13:46;;;;;;;13.03;7.73;;;19.20;99.90;;;;;;4166915;28;20248;-81
2022/08/16 06:15:50;;;;;;;11.10;7.10;;;19.20;99.90;;;;;;4186563;28;20205;-80
2022/08/16 06:17:52;;;;;;;9.80;7.53;;;19.20;99.90;;;;;;4194395;28;20227;-79
2022/08/16 06:19:56;;;;;;;9.80;7.33;;;19.30;99.90;;;;;;4192988;28;20204;-80
2022/08/16 06:21:58;;;;;;;10.00;7.10;;;19.30;99.90;;;;;;4193545;28;20192;-80
2022/08/16 06:24:00;;;;;;;10.70;6.63;;;19.40;99.90;;;;;;4195365;28;20235;-80
2022/08/16 06:26:04;;;;;;;9.37;7.03;;;19.40;99.90;;;;;;4179483;28;20820;-79
2022/08/16 06:28:08;;;;;;;12.10;6.77;;;19.50;99.90;;;;;;4191960;28;20305;-81
2022/08/16 06:30:12;;;;;;;10.63;6.03;;;19.50;99.90;;;;;;4177680;28;20273;-79
2022/08/16 06:32:14;;;;;;;7.33;5.93;;;19.50;99.90;;;;;;4196294;28;20473;-79
2022/08/16 06:34:16;;;;;;;10.40;6.87;;;19.60;99.90;;;;;;4184829;28;20209;-79
2022/08/16 06:36:19;;;;;;;8.27;5.97;;;19.60;99.90;;;;;;4193834;28;20201;-81
2022/08/16 06:38:21;;;;;;;9.67;6.57;;;19.70;99.90;;;;;;4194514;28;20264;-79
2022/08/16 06:40:23;;;;;;;9.03;6.23;;;19.70;99.90;;;;;;4181078;28;20222;-79
2022/08/16 06:42:25;;;;;;;8.93;6.13;;;19.80;99.90;;;;;;4196707;28;20207;-80
2022/08/16 06:44:27;;;;;;;11.27;6.17;;;19.80;99.90;;;;;;4171530;28;20607;-81
2022/08/16 06:46:33;;;;;;;10.97;5.53;;;19.80;99.90;;;;;;4187566;28;20255;-80
2022/08/16 06:48:35;;;;;;;7.07;5.57;;;19.90;99.90;;;;;;4187361;28;20696;-80
2022/08/16 06:50:37;;;;;;;8.13;6.47;;;19.90;99.90;;;;;;4171372;28;20268;-80
2022/08/16 06:52:41;;;;;;;10.03;5.77;;;20.00;99.90;;;;;;4189817;28;20278;-80
2022/08/16 06:54:44;;;;;;;10.23;6.20;;;20.00;99.90;;;;;;4186972;28;20609;-81
2022/08/16 06:56:45;;;;;;;9.37;6.23;;;20.00;99.90;;;;;;4172547;28;20701;-79
2022/08/16 06:58:48;;;;;;;9.23;6.00;;;20.10;99.90;;;;;;4166332;28;20281;-80
2022/08/16 07:00:50;;;;;;;9.93;6.10;;;20.10;99.90;;;;;;4189184;28;20201;-79
2022/08/16 07:02:52;;;;;;;7.57;5.97;;;20.20;99.90;;;;;;4174115;28;20289;-80
2022/08/16 07:04:54;;;;;;;10.57;5.80;;;20.20;99.90;;;;;;4191351;28;20209;-80
2022/08/16 07:06:56;;;;;;;8.63;6.27;;;20.30;99.90;;;;;;4168802;28;20285;-79
2022/08/16 07:08:59;;;;;;;8.17;5.93;;;20.30;99.90;;;;;;4188983;28;20244;-79
2022/08/16 07:11:01;;;;;;;8.90;6.20;;;20.40;99.90;;;;;;4165480;28;20236;-80
2022/08/16 07:13:04;;;;;;;7.50;6.00;;;20.50;99.90;;;;;;4187163;28;20220;-80
2022/08/16 07:15:08;;;;;;;9.80;6.27;;;20.50;99.90;;;;;;4190326;28;20209;-80
2022/08/16 07:17:10;;;;;;;9.43;5.90;;;20.60;99.90;;;;;;4174006;28;20245;-80
2022/08/16 07:19:12;;;;;;;8.40;6.60;;;20.60;99.90;;;;;;4175242;28;20485;-80
2022/08/16 07:21:15;;;;;;;8.60;6.40;;;20.70;99.90;;;;;;4170893;28;20671;-80
2022/08/16 07:23:17;;;;;;;9.07;6.33;;;20.70;99.90;;;;;;4163908;28;20320;-80
2022/08/16 07:25:20;;;;;;;9.20;6.47;;;20.70;99.90;;;;;;4162437;28;20580;-80
2022/08/16 07:27:22;;;;;;;9.03;6.20;;;20.80;99.90;;;;;;4188178;28;20270;-80
2022/08/16 07:29:24;;;;;;;10.60;6.53;;;20.90;99.90;;;;;;4186389;28;20196;-80
2022/08/16 07:31:27;;;;;;;13.03;6.80;;;20.90;99.90;;;;;;4169452;28;20234;-80
2022/08/16 07:33:29;;;;;;;8.57;6.37;;;20.90;99.90;;;;;;4185953;28;20209;-81
2022/08/16 07:35:31;;;;;;;8.80;7.20;;;21.00;99.90;;;;;;4188380;28;20626;-80
2022/08/16 07:37:33;;;;;;;7.77;6.70;;;21.00;99.90;;;;;;4164873;28;20238;-80
2022/08/16 07:39:36;;;;;;;9.30;6.33;;;21.00;99.90;;;;;;4187506;28;20629;-79
2022/08/16 07:41:39;;;;;;;8.93;6.03;;;21.10;99.90;;;;;;4171132;28;20629;-79
2022/08/16 07:43:44;;;;;;;8.23;6.93;;;21.10;99.90;;;;;;4187757;28;20251;-80
2022/08/16 07:45:46;;;;;;;8.20;6.20;;;21.20;99.90;;;;;;4188785;28;20224;-76
2022/08/16 07:47:48;;;;;;;10.60;6.60;;;21.30;99.90;;;;;;4189954;28;20260;-79
2022/08/16 07:49:50;;;;;;;8.30;6.43;;;21.30;99.90;;;;;;4192735;28;20202;-81
2022/08/16 07:51:52;;;;;;;9.87;6.60;;;21.30;99.90;;;;;;4174237;28;20230;-79
2022/08/16 07:53:54;;;;;;;8.60;6.13;;;21.40;99.90;;;;;;4178461;28;20217;-79
2022/08/16 07:55:58;;;;;;;8.80;6.60;;;21.50;99.90;;;;;;4197623;28;20189;-80
2022/08/16 07:58:01;;;;;;;9.50;6.27;;;21.50;99.90;;;;;;4201228;28;20234;-82
2022/08/16 08:00:05;;;;;;;7.77;6.27;;;21.50;99.90;;;;;;4196127;28;20214;-81
2022/08/16 08:02:07;;;;;;;7.97;5.97;;;21.60;99.90;;;;;;4180099;28;20569;-81
2022/08/16 08:04:12;;;;;;;11.77;6.73;;;21.70;99.90;;;;;;4187532;28;20206;-81
2022/08/16 08:06:14;;;;;;;10.17;6.97;;;21.70;99.90;;;;;;4187279;28;20293;-81
2022/08/16 08:08:15;;;;;;;9.47;6.33;;;21.70;99.90;;;;;;4167684;28;20235;-76
2022/08/16 08:10:17;;;;;;;8.17;6.70;;;21.80;99.90;;;;;;4171762;28;20195;-80
2022/08/16 08:12:19;;;;;;;8.23;6.37;;;21.80;99.90;;;;;;4178744;28;20226;-81
2022/08/16 08:14:23;;;;;;;12.87;6.83;;;21.90;99.90;;;;;;4187947;28;20276;-76
2022/08/16 08:16:24;;;;;;;9.47;6.90;;;21.90;99.90;;;;;;4190591;28;20194;-81
2022/08/16 08:18:28;;;;;;;8.13;6.80;;;22.00;99.90;;;;;;4166803;28;20599;-82
2022/08/16 08:20:30;;;;;;;9.90;7.20;;;22.10;99.90;;;;;;4167749;28;20505;-79
2022/08/16 08:22:33;;;;;;;9.97;6.27;;;22.10;99.90;;;;;;4168837;28;20229;-81
2022/08/16 08:24:37;;;;;;;10.83;6.63;;;22.10;99.90;;;;;;4193877;28;20512;-80
2022/08/16 08:26:40;;;;;;;8.93;6.63;;;22.10;99.90;;;;;;4172721;28;20560;-79
2022/08/16 08:28:42;;;;;;;8.73;6.30;;;22.20;99.90;;;;;;4173642;28;20315;-81
2022/08/16 08:30:46;;;;;;;8.50;6.57;;;22.20;99.90;;;;;;4165721;28;20330;-82
2022/08/16 08:32:48;;;;;;;9.03;7.03;;;22.30;99.90;;;;;;4175500;28;20729;-79
2022/08/16 08:34:50;;;;;;;6.77;5.43;;;22.30;99.90;;;;;;4175593;28;20715;-79
2022/08/16 08:36:53;;;;;;;6.97;5.93;;;22.40;99.90;;;;;;4169876;28;20246;-77
2022/08/16 08:38:55;;;;;;;8.43;6.20;;;22.50;99.90;;;;;;4167817;28;20207;-76
2022/08/16 08:40:57;;;;;;;9.90;6.53;;;22.50;99.90;;;;;;4188598;28;20207;-76
2022/08/16 08:43:00;;;;;;;8.97;6.17;;;22.60;99.90;;;;;;4187790;28;20285;-81
2022/08/16 08:45:03;;;;;;;8.03;6.43;;;22.60;99.90;;;;;;4171788;28;20215;-81
2022/08/16 08:47:06;;;;;;;8.13;5.87;;;22.60;99.90;;;;;;4185730;28;20287;-81
2022/08/16 08:49:08;;;;;;;8.60;5.57;;;22.70;99.90;;;;;;4190372;28;20909;-79
2022/08/16 08:51:10;;;;;;;9.03;6.37;;;22.80;99.90;;;;;;4191358;28;20659;-78
2022/08/16 08:53:12;;;;;;;7.87;5.63;;;22.80;99.90;;;;;;4188350;28;20230;-76
2022/08/16 08:55:15;;;;;;;8.50;5.97;;;22.90;99.90;;;;;;4188926;28;20301;-79
2022/08/16 08:57:17;;;;;;;6.63;5.57;;;22.90;99.90;;;;;;4168263;28;20228;-82
2022/08/16 08:59:20;;;;;;;7.63;5.33;;;23.00;99.90;;;;;;4193321;28;20668;-79
2022/08/16 09:01:27;;;;;;;6.13;5.17;;;23.00;99.90;;;;;;4170037;28;20227;-79
2022/08/16 09:03:31;;;;;;;9.13;5.80;;;23.10;99.90;;;;;;4194791;28;20293;-81
2022/08/16 09:05:33;;;;;;;8.83;5.77;;;23.10;99.90;;;;;;4174127;28;20216;-81
2022/08/16 09:07:36;;;;;;;8.20;5.80;;;23.20;99.90;;;;;;4173770;28;20745;-82
2022/08/16 09:09:41;;;;;;;7.10;5.40;;;23.30;99.90;;;;;;4193259;28;20248;-84
2022/08/16 09:11:43;;;;;;;7.17;5.70;;;23.30;99.90;;;;;;4197973;28;20704;-84
2022/08/16 09:13:46;;;;;;;8.90;5.83;;;23.40;99.90;;;;;;4177526;28;20272;-85
2022/08/16 09:15:48;;;;;;;9.37;5.70;;;23.40;99.90;;;;;;4190399;28;20209;-82
2022/08/16 09:17:55;;;;;;;7.53;5.73;;;23.50;99.90;;;;;;4171603;28;20238;-84
2022/08/16 09:20:00;;;;;;;8.10;5.70;;;23.50;99.90;;;;;;4160177;28;20242;-82
2022/08/16 09:22:03;;;;;;;7.13;5.23;;;23.60;99.90;;;;;;4172166;28;20328;-76
2022/08/16 09:24:06;;;;;;;7.97;4.70;;;23.70;99.90;;;;;;4186635;28;20222;-80
2022/08/16 09:26:14;;;;;;;7.87;4.80;;;23.70;99.90;;;;;;4172774;28;20209;-82
2022/08/16 09:28:17;;;;;;;7.13;4.57;;;23.80;99.90;;;;;;4187578;28;20236;-79
2022/08/16 09:30:19;;;;;;;5.57;5.00;;;23.80;99.90;;;;;;4185898;28;20241;-80
2022/08/16 09:32:21;;;;;;;6.93;5.03;;;23.90;99.90;;;;;;4195604;28;20261;-84
2022/08/16 09:34:32;;;;;;;5.97;4.67;;;24.00;99.90;;;;;;4172312;28;20741;-82
2022/08/16 09:36:35;;;;;;;5.80;4.20;;;24.00;99.90;;;;;;4175234;28;20213;-82
2022/08/16 09:38:48;;;;;;;6.90;4.93;;;24.10;99.90;;;;;;4181745;22;20717;-78
2022/08/16 09:40:51;;;;;;;5.17;4.47;;;24.20;99.90;;;;;;4177316;28;20201;-80
2022/08/16 09:42:55;;;;;;;6.47;4.63;;;24.20;99.90;;;;;;4155279;28;20203;-81
2022/08/16 09:45:00;;;;;;;5.97;4.30;;;24.30;99.90;;;;;;4156712;28;20236;-79
2022/08/16 09:47:03;;;;;;;6.23;5.03;;;24.30;99.90;;;;;;4155614;28;20204;-77
2022/08/16 09:49:05;;;;;;;5.33;4.60;;;24.40;99.90;;;;;;4171930;28;20561;-78
2022/08/16 09:51:08;;;;;;;6.93;4.30;;;24.50;99.90;;;;;;4172583;28;20293;-78
2022/08/16 09:53:15;;;;;;;5.37;4.17;;;24.50;99.60;;;;;;4174728;28;20272;-78
2022/08/16 09:55:17;;;;;;;5.43;4.37;;;24.60;98.50;;;;;;4161938;28;20234;-78
2022/08/16 09:57:19;;;;;;;4.63;3.70;;;24.70;97.80;;;;;;4161252;28;20204;-78
2022/08/16 09:59:23;;;;;;;5.33;3.70;;;24.70;96.40;;;;;;4173723;28;20317;-78
2022/08/16 10:01:25;;;;;;;5.07;3.70;;;24.80;95.90;;;;;;4175828;28;20194;-77
2022/08/16 10:03:27;;;;;;;4.47;3.73;;;24.80;92.60;;;;;;4172308;28;20198;-78
2022/08/16 10:05:29;;;;;;;5.47;3.90;;;24.90;94.80;;;;;;4171129;28;20230;-78
2022/08/16 10:07:31;;;;;;;5.77;3.30;;;25.00;94.50;;;;;;4162051;28;20243;-79
2022/08/16 10:09:35;;;;;;;5.27;3.30;;;25.00;91.50;;;;;;4156921;28;20318;-78
2022/08/16 10:13:56;;;;;;;5.70;3.53;;;25.20;80.40;;;;;;4172558;28;20252;-80
2022/08/16 10:15:59;;;;;;;3.30;2.93;;;25.20;69.30;;;;;;4171625;28;20236;-78
2022/08/16 10:18:06;;;;;;;4.40;3.37;;;25.30;66.90;;;;;;4171579;28;20222;-77
2022/08/16 10:20:10;;;;;;;3.77;2.90;;;25.40;70.70;;;;;;4153367;28;20207;-78
2022/08/16 10:22:12;;;;;;;3.83;3.43;;;25.50;73.30;;;;;;4154709;28;20760;-77
2022/08/16 10:24:14;;;;;;;3.83;3.13;;;25.50;75.40;;;;;;4153805;28;20203;-78
2022/08/16 10:26:18;;;;;;;5.70;2.90;;;25.60;66.70;;;;;;4173409;28;20587;-78
2022/08/16 10:28:20;;;;;;;2.53;2.30;;;25.70;62.70;;;;;;4171702;28;20229;-78
2022/08/16 10:30:22;;;;;;;4.27;2.70;;;25.70;59.40;;;;;;4173696;28;20214;-78
2022/08/16 10:32:24;;;;;;;2.77;2.50;;;25.80;56.10;;;;;;4153062;28;20223;-78